Time;durP1;ratioP1;P1;durP2;ratioP2;P2;SDS_P1;SDS_P2;PMS_P1;PMS_P2;Temp;Humidity;BMP_temperature;BMP_pressure;BME280_temperature;BME280_humidity;BME280_pressure;Samples;Min_cycle;Max_cycle;Signal;HPM_P1;HPM_P2
2023/12/05 00:02:25;;;;;;;13.02;8.90;;;0.00;87.10;;;;;;5092075;28;20047;-56
2023/12/05 00:04:52;;;;;;;14.82;7.93;;;0.10;87.20;;;;;;5090609;28;20028;-55
2023/12/05 00:07:22;;;;;;;13.57;7.68;;;0.10;87.10;;;;;;5074159;28;20021;-54
2023/12/05 00:09:51;;;;;;;12.23;7.68;;;0.10;87.00;;;;;;5074900;28;20036;-56
2023/12/05 00:12:18;;;;;;;12.45;8.05;;;0.10;87.20;;;;;;5091665;28;20035;-53
2023/12/05 00:14:45;;;;;;;15.38;9.60;;;0.10;87.00;;;;;;5082801;28;20028;-55
2023/12/05 00:17:12;;;;;;;13.45;7.88;;;0.10;87.40;;;;;;5072460;28;20033;-49
2023/12/05 00:19:41;;;;;;;13.55;8.13;;;0.10;87.20;;;;;;5072448;28;20521;-53
2023/12/05 00:22:10;;;;;;;12.77;8.40;;;0.10;87.40;;;;;;5088731;28;20036;-53
2023/12/05 00:24:37;;;;;;;13.18;8.52;;;0.10;87.20;;;;;;5068089;28;20082;-55
2023/12/05 00:27:04;;;;;;;14.60;8.40;;;0.10;87.20;;;;;;5074985;28;20077;-54
2023/12/05 00:29:31;;;;;;;16.10;9.00;;;0.10;87.40;;;;;;5056755;28;20049;-56
2023/12/05 00:31:59;;;;;;;14.20;8.45;;;0.10;87.40;;;;;;5095767;28;20123;-55
2023/12/05 00:34:28;;;;;;;15.90;10.27;;;0.10;87.50;;;;;;5086420;28;20033;-56
2023/12/05 00:36:57;;;;;;;14.65;8.55;;;0.10;87.50;;;;;;5095059;28;20089;-55
2023/12/05 00:39:24;;;;;;;;;;;0.10;87.40;;;;;;5095700;28;20501;-54
2023/12/05 00:41:52;;;;;;;13.25;9.27;;;0.10;87.40;;;;;;5095085;28;19904;-53
2023/12/05 00:44:19;;;;;;;16.92;9.63;;;0.00;87.40;;;;;;5084312;28;20024;-55
2023/12/05 00:46:47;;;;;;;14.55;8.90;;;0.10;87.40;;;;;;5095079;28;20091;-56
2023/12/05 00:49:13;;;;;;;15.63;9.52;;;0.10;87.60;;;;;;5095279;28;20024;-54
2023/12/05 00:51:41;;;;;;;15.63;9.52;;;0.20;87.70;;;;;;5079338;28;20104;-55
2023/12/05 00:54:08;;;;;;;14.18;9.80;;;0.20;87.60;;;;;;5089529;28;20040;-54
2023/12/05 00:56:35;;;;;;;16.10;10.35;;;0.20;87.70;;;;;;5095035;28;20046;-52
2023/12/05 00:59:03;;;;;;;13.55;8.10;;;0.20;87.50;;;;;;5071146;28;20056;-53
2023/12/05 01:01:28;;;;;;;14.75;9.65;;;0.20;87.60;;;;;;5054620;28;20040;-56
2023/12/05 01:03:57;;;;;;;17.05;10.02;;;0.20;87.50;;;;;;5061380;28;20013;-56
2023/12/05 01:06:24;;;;;;;14.80;10.18;;;0.20;87.90;;;;;;5055408;28;20082;-53
2023/12/05 01:08:50;;;;;;;14.18;9.77;;;0.10;87.80;;;;;;5054973;28;20075;-56
2023/12/05 01:11:17;;;;;;;14.60;9.23;;;0.10;87.80;;;;;;5055216;28;20025;-51
2023/12/05 01:13:43;;;;;;;15.13;9.07;;;0.10;88.20;;;;;;5069078;28;20035;-52
2023/12/05 01:16:11;;;;;;;15.27;10.02;;;0.10;88.40;;;;;;5067896;28;20108;-55
2023/12/05 01:18:39;;;;;;;15.18;9.85;;;0.00;88.60;;;;;;5054760;28;20035;-52
2023/12/05 01:21:05;;;;;;;15.30;10.38;;;0.00;88.90;;;;;;5037273;28;20029;-53
2023/12/05 01:23:32;;;;;;;14.77;9.93;;;0.00;88.80;;;;;;5064373;28;20021;-55
2023/12/05 01:26:01;;;;;;;16.55;10.75;;;0.00;89.00;;;;;;5054817;28;20025;-51
2023/12/05 01:28:30;;;;;;;17.52;11.32;;;0.00;89.10;;;;;;5039036;28;20125;-55
2023/12/05 01:30:57;;;;;;;17.52;10.88;;;0.00;89.50;;;;;;5055488;28;20030;-55
2023/12/05 01:33:23;;;;;;;18.25;11.30;;;0.00;89.60;;;;;;5056387;28;20119;-54
2023/12/05 01:35:52;;;;;;;17.00;10.50;;;0.00;89.70;;;;;;5068396;28;20467;-49
2023/12/05 01:38:19;;;;;;;19.15;11.77;;;0.00;89.90;;;;;;5066015;28;20028;-51
2023/12/05 01:40:48;;;;;;;16.90;11.30;;;0.00;90.10;;;;;;5072602;28;20032;-51
2023/12/05 01:43:16;;;;;;;17.65;11.38;;;0.00;90.40;;;;;;5055447;28;20025;-49
2023/12/05 01:45:43;;;;;;;17.70;11.65;;;0.00;90.50;;;;;;5057414;28;20025;-52
2023/12/05 01:48:11;;;;;;;19.70;11.77;;;0.00;90.70;;;;;;5054249;28;20052;-49
2023/12/05 01:50:37;;;;;;;19.85;12.07;;;-3276.70;90.80;;;;;;5054086;28;20584;-50
2023/12/05 01:53:05;;;;;;;19.67;11.88;;;-3276.70;91.00;;;;;;5057641;28;20039;-51
2023/12/05 01:55:36;;;;;;;18.80;12.05;;;-3276.70;91.20;;;;;;5052121;28;20036;-54
2023/12/05 01:58:07;;;;;;;22.30;13.05;;;-3276.70;91.30;;;;;;5036391;28;20052;-53
2023/12/05 02:00:33;;;;;;;19.13;12.93;;;-3276.70;91.20;;;;;;5069153;28;20063;-48
2023/12/05 02:03:01;;;;;;;21.92;14.48;;;-3276.70;91.20;;;;;;5088476;28;20024;-51
2023/12/05 02:05:30;;;;;;;18.02;12.30;;;-3276.70;91.30;;;;;;5084716;28;20477;-52
2023/12/05 02:07:57;;;;;;;19.50;12.73;;;-3276.70;91.20;;;;;;5072651;28;20048;-48
2023/12/05 02:10:29;;;;;;;19.40;12.52;;;-3276.70;91.30;;;;;;5056329;28;20067;-53
2023/12/05 02:12:57;;;;;;;17.35;12.23;;;-3276.70;91.30;;;;;;5080816;28;20090;-52
2023/12/05 02:15:23;;;;;;;22.30;12.98;;;-3276.70;91.30;;;;;;5070429;28;20063;-49
2023/12/05 02:18:27;;;;;;;19.30;12.02;;;-3276.70;91.40;;;;;;5073513;28;20040;-54
2023/12/05 02:21:05;;;;;;;21.52;11.95;;;-3276.70;91.30;;;;;;5065128;28;20161;-51
2023/12/05 02:24:28;;;;;;;18.25;11.13;;;0.00;91.20;;;;;;5075966;28;20108;-53
2023/12/05 02:27:21;;;;;;;20.13;11.90;;;-3276.70;91.00;;;;;;5011131;28;20033;-48
2023/12/05 02:29:50;;;;;;;19.80;11.77;;;0.00;91.10;;;;;;5001125;28;20038;-55
2023/12/05 02:32:18;;;;;;;18.75;11.77;;;0.00;90.80;;;;;;5040466;28;20059;-52
2023/12/05 02:34:45;;;;;;;18.95;12.52;;;-3276.70;90.70;;;;;;5064315;28;20032;-50
2023/12/05 02:37:29;;;;;;;18.30;11.00;;;-3276.70;90.80;;;;;;5073276;28;20024;-53
2023/12/05 02:40:19;;;;;;;18.33;12.52;;;0.00;91.00;;;;;;5084844;28;20044;-54
2023/12/05 02:42:47;;;;;;;17.00;11.57;;;0.00;90.70;;;;;;5082818;28;20446;-50
2023/12/05 02:45:20;;;;;;;18.88;12.10;;;0.00;90.70;;;;;;5070077;28;20349;-53
2023/12/05 02:47:52;;;;;;;19.63;12.25;;;0.00;90.90;;;;;;5070807;28;20036;-51
2023/12/05 02:50:18;;;;;;;18.23;12.63;;;-3276.70;90.80;;;;;;5088535;28;20350;-54
2023/12/05 02:52:45;;;;;;;19.70;11.98;;;0.00;91.00;;;;;;5086652;28;20034;-53
2023/12/05 02:55:12;;;;;;;22.25;12.63;;;0.00;90.90;;;;;;5055426;28;20044;-50
2023/12/05 02:57:39;;;;;;;18.15;11.90;;;0.00;91.10;;;;;;5055360;28;20056;-51
2023/12/05 03:00:11;;;;;;;20.35;12.18;;;0.00;91.20;;;;;;5085301;28;20040;-51
2023/12/05 03:02:40;;;;;;;20.05;12.85;;;0.00;91.40;;;;;;5060055;28;20107;-53
2023/12/05 03:05:08;;;;;;;20.20;12.77;;;0.00;91.40;;;;;;5072510;28;20033;-48
2023/12/05 03:07:33;;;;;;;20.48;13.50;;;0.00;91.60;;;;;;5065316;28;20026;-50
2023/12/05 03:10:02;;;;;;;19.20;12.45;;;0.00;92.00;;;;;;5093214;28;20452;-48
2023/12/05 03:12:31;;;;;;;22.83;15.30;;;0.00;91.90;;;;;;5074711;28;20032;-51
2023/12/05 03:15:00;;;;;;;19.35;12.65;;;0.00;92.10;;;;;;5074650;28;20458;-54
2023/12/05 03:17:27;;;;;;;23.42;13.00;;;0.00;92.10;;;;;;5072962;28;20032;-50
2023/12/05 03:19:53;;;;;;;22.08;13.93;;;0.00;92.30;;;;;;5072855;28;20064;-50
2023/12/05 03:22:19;;;;;;;24.70;15.65;;;0.00;92.30;;;;;;5084515;28;20059;-51
2023/12/05 03:24:50;;;;;;;21.83;13.23;;;0.00;92.20;;;;;;5092688;28;20020;-55
2023/12/05 03:27:17;;;;;;;24.52;15.77;;;0.00;92.30;;;;;;5092964;28;20409;-50
2023/12/05 03:29:44;;;;;;;19.05;13.27;;;0.00;92.40;;;;;;5091185;28;20414;-48
2023/12/05 03:32:12;;;;;;;22.63;14.90;;;0.00;92.50;;;;;;5055012;28;20047;-51
2023/12/05 03:34:39;;;;;;;24.05;13.50;;;0.00;92.60;;;;;;5091576;28;20405;-52
2023/12/05 03:37:05;;;;;;;24.67;13.65;;;0.00;92.60;;;;;;5092460;28;20551;-49
2023/12/05 03:39:32;;;;;;;24.30;15.18;;;0.00;92.50;;;;;;5076817;28;20036;-50
2023/12/05 03:42:00;;;;;;;22.58;13.65;;;0.00;92.60;;;;;;5072920;28;20021;-52
2023/12/05 03:44:28;;;;;;;23.30;15.57;;;0.00;92.60;;;;;;5076661;28;20080;-51
2023/12/05 03:46:57;;;;;;;20.23;13.55;;;0.00;92.60;;;;;;5092811;28;20073;-55
2023/12/05 03:49:26;;;;;;;25.80;14.80;;;0.00;92.70;;;;;;5075430;28;20354;-50
2023/12/05 03:51:53;;;;;;;25.75;14.65;;;0.00;92.70;;;;;;5072988;28;20024;-51
2023/12/05 03:54:20;;;;;;;22.95;14.52;;;0.00;92.70;;;;;;5075827;28;20113;-54
2023/12/05 03:56:47;;;;;;;22.95;14.75;;;0.00;92.80;;;;;;5073409;28;20043;-53
2023/12/05 03:59:13;;;;;;;24.73;15.23;;;0.00;92.80;;;;;;5073710;28;20361;-53
2023/12/05 04:01:41;;;;;;;23.58;15.88;;;0.00;92.90;;;;;;5079315;28;20430;-53
2023/12/05 04:04:08;;;;;;;23.13;16.10;;;0.00;92.90;;;;;;5077430;28;20047;-52
2023/12/05 04:06:34;;;;;;;25.58;16.60;;;0.00;93.00;;;;;;5092759;28;20020;-52
2023/12/05 04:09:07;;;;;;;26.58;15.82;;;0.00;92.90;;;;;;5094663;28;20016;-50
2023/12/05 04:11:34;;;;;;;26.98;16.77;;;0.00;93.10;;;;;;5091524;28;20036;-54
2023/12/05 04:14:00;;;;;;;26.48;16.75;;;0.00;93.10;;;;;;5076535;28;20020;-52
2023/12/05 04:16:28;;;;;;;28.25;17.15;;;0.00;93.20;;;;;;5085792;28;20028;-50
2023/12/05 04:18:56;;;;;;;23.27;16.00;;;0.00;93.20;;;;;;5096539;28;20114;-49
2023/12/05 04:21:26;;;;;;;26.20;17.48;;;0.00;93.00;;;;;;5084542;28;20044;-52
2023/12/05 04:23:53;;;;;;;26.30;17.08;;;0.00;93.10;;;;;;5086344;28;20120;-47
2023/12/05 04:26:22;;;;;;;24.55;17.30;;;0.00;93.10;;;;;;5076877;28;20056;-48
2023/12/05 04:28:49;;;;;;;25.77;16.23;;;0.00;93.00;;;;;;5086379;28;20469;-50
2023/12/05 04:31:16;;;;;;;28.58;17.55;;;0.00;92.90;;;;;;5064015;28;20454;-50
2023/12/05 04:33:44;;;;;;;25.40;15.77;;;0.00;93.10;;;;;;5075831;28;20438;-50
2023/12/05 04:36:15;;;;;;;27.08;18.13;;;0.00;93.00;;;;;;5090124;28;20020;-52
2023/12/05 04:38:42;;;;;;;28.77;16.88;;;0.00;93.00;;;;;;5077781;28;20025;-49
2023/12/05 04:41:09;;;;;;;24.48;16.92;;;0.00;93.00;;;;;;5092932;28;20050;-51
2023/12/05 04:43:36;;;;;;;23.40;14.48;;;0.00;92.80;;;;;;5071836;28;20039;-50
2023/12/05 04:46:02;;;;;;;23.27;15.65;;;0.00;93.00;;;;;;5087053;28;20013;-50
2023/12/05 04:48:30;;;;;;;25.17;16.50;;;0.00;93.00;;;;;;5057696;28;20388;-51
2023/12/05 04:50:58;;;;;;;26.00;16.08;;;0.00;93.10;;;;;;5067608;28;20076;-50
2023/12/05 04:53:24;;;;;;;29.00;19.92;;;0.00;93.10;;;;;;5105553;28;20035;-47
2023/12/05 04:55:51;;;;;;;28.25;16.73;;;0.00;93.00;;;;;;5100300;28;20516;-48
2023/12/05 04:58:16;;;;;;;26.45;17.13;;;0.00;93.00;;;;;;5111845;28;20035;-50
2023/12/05 05:00:43;;;;;;;30.10;17.08;;;0.00;93.00;;;;;;5078782;28;20114;-47
2023/12/05 05:03:11;;;;;;;28.67;17.35;;;0.00;93.10;;;;;;5081508;28;20059;-50
2023/12/05 05:05:37;;;;;;;29.42;16.88;;;0.00;93.00;;;;;;5096564;28;20082;-50
2023/12/05 05:08:03;;;;;;;27.75;18.17;;;0.00;92.90;;;;;;5094927;28;20820;-47
2023/12/05 05:10:32;;;;;;;28.63;17.38;;;0.00;92.90;;;;;;5059953;28;20524;-49
2023/12/05 05:12:59;;;;;;;25.15;17.92;;;0.00;92.90;;;;;;5097744;28;20028;-52
2023/12/05 05:15:27;;;;;;;26.45;16.27;;;0.00;92.90;;;;;;5082280;28;20720;-48
2023/12/05 05:17:52;;;;;;;26.80;16.88;;;0.00;92.90;;;;;;5083952;28;20051;-50
2023/12/05 05:20:20;;;;;;;23.40;15.30;;;0.00;93.00;;;;;;5090116;28;20024;-49
2023/12/05 05:22:47;;;;;;;30.25;18.17;;;0.00;92.90;;;;;;5095064;28;20024;-49
2023/12/05 05:25:15;;;;;;;28.10;16.65;;;0.00;92.90;;;;;;5076419;28;20032;-48
2023/12/05 05:27:42;;;;;;;32.15;18.38;;;0.00;93.10;;;;;;5090246;28;20056;-50
2023/12/05 05:30:11;;;;;;;26.95;16.98;;;0.00;93.00;;;;;;5072643;28;20077;-50
2023/12/05 05:32:38;;;;;;;25.27;17.97;;;0.00;93.00;;;;;;5091722;28;20032;-51
2023/12/05 05:35:05;;;;;;;25.38;16.95;;;0.00;93.00;;;;;;5084762;28;20047;-52
2023/12/05 05:37:33;;;;;;;23.83;17.77;;;0.00;93.20;;;;;;5085075;28;20028;-52
2023/12/05 05:40:00;;;;;;;23.63;16.23;;;0.00;93.20;;;;;;5085073;28;20031;-50
2023/12/05 05:42:28;;;;;;;27.17;17.52;;;0.00;93.20;;;;;;5085781;28;20020;-48
2023/12/05 05:44:56;;;;;;;24.35;16.73;;;0.00;93.10;;;;;;5067628;28;20028;-47
2023/12/05 05:47:24;;;;;;;29.15;17.23;;;0.00;93.10;;;;;;5081134;28;20039;-48
2023/12/05 05:49:49;;;;;;;25.77;17.92;;;0.00;93.20;;;;;;5084759;28;20039;-48
2023/12/05 05:52:20;;;;;;;24.67;18.02;;;0.00;93.20;;;;;;5067038;28;20446;-54
2023/12/05 05:54:49;;;;;;;28.27;18.00;;;0.00;93.20;;;;;;5083477;28;20158;-47
2023/12/05 05:57:16;;;;;;;28.00;18.00;;;0.00;93.20;;;;;;5067860;28;20059;-48
2023/12/05 05:59:44;;;;;;;30.83;19.88;;;0.00;93.20;;;;;;5079378;28;20049;-48
2023/12/05 06:02:12;;;;;;;31.13;18.42;;;0.00;93.10;;;;;;5086166;28;20349;-47
2023/12/05 06:04:42;;;;;;;27.33;17.77;;;0.00;93.30;;;;;;5093599;28;20093;-47
2023/12/05 06:07:13;;;;;;;28.80;19.42;;;0.00;93.20;;;;;;5085079;28;20035;-49
2023/12/05 06:09:41;;;;;;;31.48;17.08;;;0.00;93.20;;;;;;5086600;28;20378;-47
2023/12/05 06:12:08;;;;;;;30.35;19.33;;;0.00;93.30;;;;;;5071807;28;20178;-51
2023/12/05 06:14:35;;;;;;;26.23;18.40;;;0.00;93.20;;;;;;5081235;28;20035;-49
2023/12/05 06:17:03;;;;;;;32.33;18.67;;;0.00;93.30;;;;;;5086941;28;20024;-50
2023/12/05 06:19:34;;;;;;;29.60;19.33;;;0.00;93.40;;;;;;5091447;28;20093;-51
2023/12/05 06:22:01;;;;;;;30.52;19.00;;;0.00;93.50;;;;;;5078931;28;20119;-47
2023/12/05 06:24:30;;;;;;;25.45;17.83;;;0.00;93.40;;;;;;5088819;28;20020;-51
2023/12/05 06:26:59;;;;;;;27.60;18.48;;;-3276.70;93.50;;;;;;5085304;28;21610;-51
2023/12/05 06:29:26;;;;;;;26.52;18.70;;;0.00;93.50;;;;;;5087618;28;20032;-48
2023/12/05 06:31:52;;;;;;;28.33;18.25;;;0.00;93.40;;;;;;5090343;28;20102;-49
2023/12/05 06:34:19;;;;;;;34.05;21.48;;;0.00;93.40;;;;;;5064733;28;20028;-48
2023/12/05 06:36:46;;;;;;;29.40;19.70;;;0.00;93.40;;;;;;5086615;28;20031;-52
2023/12/05 06:39:13;;;;;;;29.20;19.60;;;-3276.70;93.30;;;;;;5085323;28;20028;-49
2023/12/05 06:41:40;;;;;;;30.80;20.33;;;0.00;93.50;;;;;;5069280;28;20110;-49
2023/12/05 06:44:09;;;;;;;32.88;17.65;;;0.00;93.50;;;;;;5087329;28;20117;-50
2023/12/05 06:46:36;;;;;;;33.35;20.90;;;0.00;93.50;;;;;;5078557;28;20020;-50
2023/12/05 06:49:03;;;;;;;27.83;18.55;;;0.00;93.50;;;;;;5069151;28;20040;-53
2023/12/05 06:51:29;;;;;;;36.33;24.13;;;-3276.70;93.50;;;;;;5084809;28;20457;-49
2023/12/05 06:53:54;;;;;;;47.78;31.30;;;-3276.70;93.40;;;;;;5083832;28;20039;-54
2023/12/05 06:56:22;;;;;;;31.48;20.77;;;-3276.70;93.30;;;;;;5083520;28;20408;-48
2023/12/05 06:58:50;;;;;;;26.02;18.30;;;-3276.70;93.40;;;;;;5092358;28;20024;-48
2023/12/05 07:01:18;;;;;;;29.00;19.90;;;-3276.70;93.40;;;;;;5088294;28;20514;-52
2023/12/05 07:03:44;;;;;;;27.95;20.10;;;-3276.60;93.30;;;;;;5091655;28;20046;-53
2023/12/05 07:06:11;;;;;;;29.00;19.85;;;-3276.70;93.50;;;;;;5092865;28;20028;-51
2023/12/05 07:08:39;;;;;;;29.75;20.38;;;-3276.60;93.20;;;;;;5086472;28;20127;-52
2023/12/05 07:11:06;;;;;;;28.48;19.73;;;-3276.60;93.30;;;;;;5086798;28;20020;-52
2023/12/05 07:13:34;;;;;;;32.67;20.27;;;-3276.60;93.50;;;;;;5103018;28;20020;-52
2023/12/05 07:16:00;;;;;;;29.55;20.38;;;-3276.60;93.40;;;;;;5100678;28;20019;-54
2023/12/05 07:18:27;;;;;;;28.55;19.60;;;-3276.60;93.30;;;;;;5089217;28;20107;-49
2023/12/05 07:20:53;;;;;;;29.55;19.73;;;-3276.60;93.40;;;;;;5098515;28;20039;-50
2023/12/05 07:23:20;;;;;;;31.65;19.60;;;-3276.70;93.40;;;;;;5086752;28;20052;-50
2023/12/05 07:25:49;;;;;;;33.53;20.73;;;-3276.60;93.40;;;;;;5095577;28;20033;-48
2023/12/05 07:28:17;;;;;;;31.52;21.52;;;-3276.60;93.20;;;;;;5104608;28;20033;-49
2023/12/05 07:30:44;;;;;;;33.25;20.95;;;-3276.70;93.40;;;;;;5084405;28;20446;-48
2023/12/05 07:33:11;;;;;;;31.48;20.58;;;-3276.70;93.30;;;;;;5089208;28;20028;-50
2023/12/05 07:35:39;;;;;;;33.33;21.55;;;-3276.60;93.30;;;;;;5086851;28;20048;-49
2023/12/05 07:38:06;;;;;;;33.22;20.70;;;-3276.60;93.30;;;;;;5084614;28;20039;-50
2023/12/05 07:40:35;;;;;;;31.90;19.83;;;-3276.60;93.30;;;;;;5092371;28;20075;-51
2023/12/05 07:43:01;;;;;;;37.33;22.67;;;-3276.60;93.40;;;;;;5092420;28;20068;-54
2023/12/05 07:45:33;;;;;;;35.28;20.67;;;-3276.60;93.30;;;;;;5098368;28;20443;-48
2023/12/05 07:48:00;;;;;;;35.20;22.58;;;-3276.50;93.20;;;;;;5112478;28;20032;-48
2023/12/05 07:50:27;;;;;;;36.08;22.25;;;-3276.50;93.30;;;;;;5095585;28;20074;-48
2023/12/05 07:52:53;;;;;;;33.03;19.88;;;-3276.40;93.20;;;;;;5088409;28;20030;-51
2023/12/05 07:55:22;;;;;;;34.25;22.58;;;-3276.50;93.30;;;;;;5089319;28;20028;-51
2023/12/05 07:57:52;;;;;;;33.28;20.33;;;-3276.50;93.30;;;;;;5099434;28;20024;-53
2023/12/05 08:00:19;;;;;;;34.03;22.90;;;-3276.50;93.30;;;;;;5097505;28;20071;-50
2023/12/05 08:02:46;;;;;;;31.45;21.70;;;-3276.50;93.20;;;;;;5109620;28;20024;-48
2023/12/05 08:05:14;;;;;;;34.55;21.48;;;-3276.50;93.10;;;;;;5090008;28;20450;-52
2023/12/05 08:07:41;;;;;;;29.65;20.73;;;-3276.50;93.10;;;;;;5094242;28;20472;-52
2023/12/05 08:10:11;;;;;;;32.03;21.48;;;-3276.50;93.00;;;;;;5089310;28;20032;-52
2023/12/05 08:12:39;;;;;;;36.40;22.92;;;-3276.50;92.90;;;;;;5086536;28;20060;-52
2023/12/05 08:15:08;;;;;;;34.92;21.23;;;-3276.50;92.80;;;;;;5096396;28;20118;-48
2023/12/05 08:17:36;;;;;;;33.10;20.77;;;-3276.40;92.80;;;;;;5077646;28;20096;-48
2023/12/05 08:20:09;;;;;;;38.60;23.15;;;-3276.40;92.80;;;;;;5105495;28;20119;-48
2023/12/05 08:22:40;;;;;;;40.55;22.70;;;-3276.50;92.60;;;;;;5092643;28;20085;-50
2023/12/05 08:25:10;;;;;;;35.92;22.33;;;-3276.50;92.50;;;;;;5098736;28;20027;-49
2023/12/05 08:27:38;;;;;;;34.50;21.23;;;-3276.50;92.60;;;;;;5105053;28;20020;-48
2023/12/05 08:30:05;;;;;;;33.95;20.25;;;-3276.60;92.50;;;;;;5107050;28;20067;-47
2023/12/05 08:32:33;;;;;;;35.22;21.65;;;-3276.60;92.50;;;;;;5089532;28;20043;-46
2023/12/05 08:34:59;;;;;;;32.95;21.73;;;-3276.50;92.40;;;;;;5069812;28;20043;-47
2023/12/05 08:37:25;;;;;;;35.88;22.25;;;-3276.50;92.30;;;;;;5089763;28;20032;-47
2023/12/05 08:39:52;;;;;;;35.67;21.55;;;-3276.50;92.30;;;;;;5086175;28;20029;-48
2023/12/05 08:42:19;;;;;;;36.58;21.88;;;-3276.60;92.30;;;;;;5085876;28;20032;-48
2023/12/05 08:44:46;;;;;;;32.92;22.00;;;-3276.50;92.30;;;;;;5085216;28;20020;-47
2023/12/05 08:47:13;;;;;;;32.38;20.73;;;-3276.50;92.20;;;;;;5091719;28;20616;-47
2023/12/05 08:49:40;;;;;;;28.80;19.58;;;-3276.50;92.20;;;;;;5091932;28;20024;-46
2023/12/05 08:52:07;;;;;;;35.40;22.75;;;-3276.40;92.20;;;;;;5090164;28;20031;-46
2023/12/05 08:54:35;;;;;;;34.83;21.00;;;-3276.40;92.30;;;;;;5087312;28;20051;-46
2023/12/05 08:57:03;;;;;;;33.92;23.02;;;-3276.50;92.50;;;;;;5080574;28;20050;-49
2023/12/05 08:59:30;;;;;;;33.95;21.55;;;-3276.50;92.30;;;;;;5086678;28;20047;-49
2023/12/05 09:01:57;;;;;;;33.05;21.95;;;-3276.50;92.20;;;;;;5102662;28;20062;-45
2023/12/05 09:04:27;;;;;;;28.65;20.90;;;-3276.50;92.30;;;;;;5085451;28;20047;-45
2023/12/05 09:06:55;;;;;;;36.30;23.83;;;-3276.50;92.20;;;;;;5100301;28;20080;-47
2023/12/05 09:09:21;;;;;;;33.55;21.55;;;-3276.50;92.10;;;;;;5094762;28;20043;-48
2023/12/05 09:11:51;;;;;;;32.15;20.55;;;-3276.60;92.20;;;;;;5091694;28;20503;-45
2023/12/05 09:14:18;;;;;;;35.28;21.70;;;-3276.60;92.10;;;;;;5085388;28;20051;-44
2023/12/05 09:16:47;;;;;;;32.78;21.70;;;-3276.60;92.00;;;;;;5079457;28;20020;-45
2023/12/05 09:19:15;;;;;;;32.92;20.02;;;-3276.60;92.10;;;;;;5095598;28;20105;-44
2023/12/05 09:21:46;;;;;;;34.10;23.95;;;-3276.60;92.00;;;;;;5092151;28;20035;-46
2023/12/05 09:24:11;;;;;;;33.40;22.33;;;-3276.60;91.90;;;;;;5099170;28;20024;-43
2023/12/05 09:26:39;;;;;;;34.97;24.13;;;-3276.60;92.00;;;;;;5107100;28;20485;-46
2023/12/05 09:29:06;;;;;;;37.05;23.88;;;-3276.60;91.80;;;;;;5102118;28;20058;-47
2023/12/05 09:31:35;;;;;;;33.17;22.23;;;-3276.60;91.90;;;;;;5093290;28;20024;-43
2023/12/05 09:34:03;;;;;;;32.88;22.45;;;-3276.60;91.80;;;;;;5090727;28;20128;-44
2023/12/05 09:36:30;;;;;;;35.78;23.08;;;-3276.70;91.80;;;;;;5092660;28;20449;-48
2023/12/05 09:39:01;;;;;;;35.70;23.17;;;-3276.70;91.60;;;;;;5074434;28;20032;-46
2023/12/05 09:41:27;;;;;;;33.55;24.40;;;-3276.70;91.80;;;;;;5094222;28;20465;-44
2023/12/05 09:43:58;;;;;;;39.17;23.75;;;-3276.70;91.90;;;;;;5078766;28;20036;-44
2023/12/05 09:46:25;;;;;;;36.53;24.35;;;0.00;92.00;;;;;;5096022;28;21055;-44
2023/12/05 09:48:59;;;;;;;33.35;21.88;;;0.00;91.90;;;;;;5071054;28;20043;-44
2023/12/05 09:51:25;;;;;;;38.85;23.27;;;0.00;91.90;;;;;;5058609;28;20480;-44
2023/12/05 09:53:56;;;;;;;37.53;22.88;;;0.00;91.90;;;;;;5092787;28;20020;-49
2023/12/05 09:56:25;;;;;;;31.63;22.40;;;0.00;91.80;;;;;;5049613;28;20119;-46
2023/12/05 09:58:53;;;;;;;32.23;21.43;;;-3276.70;91.70;;;;;;5061756;28;20032;-51
2023/12/05 10:01:22;;;;;;;34.10;23.38;;;-3276.70;91.80;;;;;;5086558;28;20028;-44
2023/12/05 10:03:57;;;;;;;38.78;25.05;;;-3276.70;91.80;;;;;;5066400;28;20036;-45
2023/12/05 10:06:29;;;;;;;31.35;22.40;;;-3276.70;92.00;;;;;;5067801;28;20450;-44
2023/12/05 10:08:56;;;;;;;32.95;22.63;;;-3276.70;91.90;;;;;;5087413;28;20020;-45
2023/12/05 10:11:27;;;;;;;37.42;23.83;;;-3276.70;91.90;;;;;;5090736;28;20046;-46
2023/12/05 10:13:58;;;;;;;34.80;23.75;;;-3276.70;92.20;;;;;;5052719;28;20040;-48
2023/12/05 10:16:30;;;;;;;36.90;25.15;;;-3276.70;92.10;;;;;;5085461;28;20519;-47
2023/12/05 10:18:59;;;;;;;42.25;25.75;;;-3276.70;92.10;;;;;;5075744;28;20047;-48
2023/12/05 10:21:26;;;;;;;39.03;25.63;;;-3276.70;92.10;;;;;;5087628;28;20024;-48
2023/12/05 10:23:55;;;;;;;37.47;25.13;;;-3276.60;92.00;;;;;;5086537;28;20149;-44
2023/12/05 10:26:22;;;;;;;42.35;28.05;;;-3276.60;92.10;;;;;;5077190;28;20122;-43
2023/12/05 10:28:51;;;;;;;36.22;25.48;;;-3276.60;92.10;;;;;;5092750;28;20050;-48
2023/12/05 10:31:19;;;;;;;;;;;-3276.60;91.90;;;;;;5084680;28;20092;-44
2023/12/05 10:33:51;;;;;;;36.05;23.17;;;-3276.60;91.90;;;;;;5070574;28;20355;-44
2023/12/05 10:36:19;;;;;;;39.40;25.05;;;-3276.60;92.00;;;;;;5063667;28;20123;-43
2023/12/05 10:38:48;;;;;;;38.95;25.65;;;-3276.60;91.80;;;;;;5085753;28;20032;-47
2023/12/05 10:41:23;;;;;;;39.40;24.00;;;-3276.70;91.90;;;;;;5084593;28;20028;-44
2023/12/05 10:43:51;;;;;;;34.53;24.55;;;-3276.70;91.70;;;;;;5088195;28;20070;-46
2023/12/05 10:46:19;;;;;;;40.10;25.75;;;-3276.70;91.70;;;;;;5068616;28;20028;-47
2023/12/05 10:48:49;;;;;;;36.97;26.35;;;-3276.70;91.80;;;;;;5085837;28;20594;-47
2023/12/05 10:51:16;;;;;;;33.22;24.13;;;-3276.70;91.80;;;;;;5082300;28;20029;-47
2023/12/05 10:53:45;;;;;;;38.28;26.13;;;-3276.70;91.70;;;;;;5087089;28;20086;-44
2023/12/05 10:56:16;;;;;;;45.92;25.88;;;-3276.70;91.60;;;;;;5071276;28;20020;-43
2023/12/05 10:58:43;;;;;;;36.03;26.30;;;-3276.70;91.70;;;;;;5067188;28;20066;-45
2023/12/05 11:01:12;;;;;;;39.63;26.13;;;-3276.70;91.60;;;;;;5067364;28;20055;-45
2023/12/05 11:03:40;;;;;;;56.97;35.60;;;-3276.70;91.60;;;;;;5044654;28;20677;-43
2023/12/05 11:06:08;;;;;;;39.15;26.80;;;-3276.70;91.60;;;;;;5047059;28;20040;-44
2023/12/05 11:08:36;;;;;;;39.42;26.05;;;-3276.70;91.60;;;;;;5043450;28;20025;-44
2023/12/05 11:11:04;;;;;;;43.03;26.48;;;-3276.70;91.50;;;;;;5068147;28;20017;-44
2023/12/05 11:13:35;;;;;;;42.45;28.33;;;-3276.70;91.70;;;;;;5061135;28;20649;-44
2023/12/05 11:16:23;;;;;;;37.17;25.23;;;0.00;91.80;;;;;;5065510;28;20056;-43
2023/12/05 11:19:11;;;;;;;37.17;25.40;;;0.00;91.70;;;;;;5047314;28;20024;-44
2023/12/05 11:21:54;;;;;;;35.55;24.70;;;0.00;91.60;;;;;;5017365;28;20063;-44
2023/12/05 11:24:57;;;;;;;36.92;25.25;;;0.00;91.60;;;;;;5067083;28;20323;-45
2023/12/05 11:27:34;;;;;;;40.20;25.73;;;0.00;91.60;;;;;;5046360;28;20043;-46
2023/12/05 11:30:28;;;;;;;39.50;27.67;;;0.00;91.50;;;;;;5068164;28;20441;-42
2023/12/05 11:33:24;;;;;;;41.78;27.80;;;0.00;91.50;;;;;;5062521;28;20793;-43
2023/12/05 11:36:27;;;;;;;42.22;26.52;;;0.00;91.50;;;;;;5064724;28;20514;-44
2023/12/05 11:38:56;;;;;;;42.63;25.48;;;0.00;91.50;;;;;;5059990;28;20033;-43
2023/12/05 11:41:23;;;;;;;42.45;27.77;;;0.00;91.30;;;;;;5064377;28;20048;-43
2023/12/05 11:44:17;;;;;;;44.33;27.70;;;0.00;91.40;;;;;;5064176;28;20021;-42
2023/12/05 11:46:44;;;;;;;40.47;26.85;;;0.00;91.30;;;;;;5061863;28;20438;-42
2023/12/05 11:49:11;;;;;;;41.13;27.33;;;0.00;91.30;;;;;;5063638;28;20049;-44
2023/12/05 11:51:38;;;;;;;40.45;27.88;;;0.10;91.20;;;;;;5061391;28;20080;-42
2023/12/05 11:54:08;;;;;;;41.30;28.15;;;0.00;91.30;;;;;;5062359;28;20111;-45
2023/12/05 11:56:35;;;;;;;40.60;27.25;;;0.10;91.40;;;;;;5059347;28;20031;-42
2023/12/05 11:59:20;;;;;;;42.28;27.58;;;0.20;91.50;;;;;;5064749;28;20017;-48
2023/12/05 12:01:50;;;;;;;43.65;28.38;;;0.20;91.40;;;;;;5080779;28;20046;-43
2023/12/05 12:04:21;;;;;;;38.08;26.50;;;0.20;91.30;;;;;;5067164;28;20035;-44
2023/12/05 12:06:49;;;;;;;40.50;26.83;;;0.10;91.20;;;;;;5066932;28;20024;-45
2023/12/05 12:09:17;;;;;;;41.15;27.50;;;0.20;91.30;;;;;;5080358;28;20357;-47
2023/12/05 12:11:43;;;;;;;40.28;27.75;;;0.20;91.30;;;;;;5079133;28;20036;-44
2023/12/05 12:14:18;;;;;;;40.25;27.42;;;0.20;91.20;;;;;;5081427;28;20043;-44
2023/12/05 12:16:50;;;;;;;43.67;28.95;;;0.20;91.00;;;;;;5061322;28;20872;-43
2023/12/05 12:19:16;;;;;;;40.03;27.92;;;0.20;91.10;;;;;;5083483;28;20039;-44
2023/12/05 12:21:44;;;;;;;41.65;29.27;;;0.20;91.10;;;;;;5084172;28;20024;-45
2023/12/05 12:24:40;;;;;;;42.28;27.45;;;0.20;91.00;;;;;;5082248;28;20024;-44
2023/12/05 12:27:11;;;;;;;42.28;28.15;;;0.10;91.00;;;;;;5075771;28;20044;-44
2023/12/05 12:29:38;;;;;;;39.40;27.10;;;0.20;91.00;;;;;;5068687;28;20036;-44
2023/12/05 12:32:10;;;;;;;44.78;28.45;;;0.20;91.20;;;;;;5084713;28;20028;-44
2023/12/05 12:34:42;;;;;;;37.55;26.73;;;0.20;91.10;;;;;;5083847;28;20326;-44